2TN4 weather

Shoemaker-Shelby Forest Airport
Millington, Tennessee, United States

Public forecast

Using degrees Fahrenheit for public forecast. Weather courtesy of forecast.io.

Closest aviation weather report (METAR) to Shoemaker-Shelby Forest Airport

Closest report is Millington-Memphis Airport, 8.4 nm (15.6 km) ENE. Retrieved 2019/10/16 17:50 UTC (34 minutes ago):

KNQA 161750Z 35009KT 10SM CLR 15/05 A3009

Closest aviation forecast (TAF) to Shoemaker-Shelby Forest Airport

Closest forecast is Memphis International Airport, 16.8 nm (31.1 km) S. Retrieved 2019/10/16 18:24 UTC (0 seconds ago):

TAF KMEM 161721Z 1618/1724 36011KT P6SM FEW250 FM170200 34004KT P6SM SKC FM171400 05004KT P6SM SKC FM171800 36003KT P6SM SKC